Time;durP1;ratioP1;P1;durP2;ratioP2;P2;SDS_P1;SDS_P2;PMS_P1;PMS_P2;Temp;Humidity;BMP_temperature;BMP_pressure;BME280_temperature;BME280_humidity;BME280_pressure;Samples;Min_cycle;Max_cycle;Signal;HPM_P1;HPM_P2
2021/01/02 06:02:43;;;;;;;35.17;11.40;;;0.30;97.30;;;;;;4968905;23;20496;-72
2021/01/02 06:05:10;;;;;;;31.63;12.87;;;0.30;97.30;;;;;;4915191;29;20432;-73
2021/01/02 06:07:39;;;;;;;31.73;12.47;;;0.40;97.30;;;;;;4916240;29;20192;-73
2021/01/02 06:10:07;;;;;;;34.43;13.57;;;0.40;97.30;;;;;;4917950;29;20440;-72
2021/01/02 06:12:37;;;;;;;27.17;12.63;;;0.50;97.30;;;;;;4898354;29;20485;-73
2021/01/02 06:15:05;;;;;;;28.37;12.67;;;0.60;97.30;;;;;;4897757;29;20812;-73
2021/01/02 06:17:50;;;;;;;28.87;11.30;;;0.60;97.30;;;;;;4897224;29;20436;-73
2021/01/02 06:20:18;;;;;;;21.00;9.10;;;0.70;97.30;;;;;;4896714;29;20457;-73
2021/01/02 06:22:44;;;;;;;25.27;11.13;;;0.80;97.30;;;;;;4896143;29;20871;-73
2021/01/02 06:25:12;;;;;;;23.83;12.00;;;0.80;97.30;;;;;;4897841;29;20926;-73
2021/01/02 06:27:40;;;;;;;25.60;9.90;;;0.90;97.30;;;;;;4897049;29;20429;-73
2021/01/02 06:30:07;;;;;;;23.90;11.30;;;0.90;97.30;;;;;;4898066;29;20920;-73
2021/01/02 06:32:32;;;;;;;22.57;10.10;;;1.00;97.30;;;;;;4900786;29;20473;-72
2021/01/02 06:35:10;;;;;;;26.13;11.30;;;1.00;97.30;;;;;;4901423;29;20414;-73
2021/01/02 06:37:51;;;;;;;24.50;10.90;;;1.10;97.30;;;;;;4899778;29;20188;-72
2021/01/02 06:40:27;;;;;;;20.50;10.07;;;1.10;97.30;;;;;;4899755;29;20429;-73
2021/01/02 06:42:53;;;;;;;22.93;11.23;;;1.10;97.30;;;;;;4899588;29;20515;-73
2021/01/02 06:45:37;;;;;;;22.63;10.40;;;1.10;97.30;;;;;;4900973;29;20453;-72
2021/01/02 06:48:24;;;;;;;24.50;11.43;;;1.20;97.30;;;;;;4900781;29;20428;-72
2021/01/02 06:50:57;;;;;;;22.50;10.63;;;1.20;97.30;;;;;;4898694;29;20535;-73
2021/01/02 06:53:34;;;;;;;19.77;9.33;;;1.20;97.30;;;;;;4899223;29;20911;-72
2021/01/02 06:56:13;;;;;;;18.80;9.70;;;1.20;97.30;;;;;;4898372;29;20500;-72
2021/01/02 06:58:44;;;;;;;28.07;11.70;;;1.20;97.30;;;;;;4898085;29;20504;-72
2021/01/02 07:01:16;;;;;;;20.50;10.70;;;1.10;97.30;;;;;;4900429;29;20457;-72
2021/01/02 07:03:42;;;;;;;21.47;10.40;;;1.10;97.30;;;;;;4899162;29;20418;-72
2021/01/02 07:06:22;;;;;;;25.93;11.53;;;1.00;97.30;;;;;;4898871;29;20420;-73
2021/01/02 07:09:02;;;;;;;27.10;11.30;;;1.00;97.30;;;;;;4897746;29;20436;-73
2021/01/02 07:11:39;;;;;;;21.77;10.47;;;1.10;97.30;;;;;;4896481;29;20998;-73
2021/01/02 07:14:08;;;;;;;21.60;10.63;;;1.10;97.30;;;;;;4898772;29;20927;-73
2021/01/02 07:16:37;;;;;;;20.07;10.27;;;1.10;97.30;;;;;;4898683;29;20422;-73
2021/01/02 07:19:06;;;;;;;25.60;11.03;;;1.10;97.30;;;;;;4898472;29;20803;-72
2021/01/02 07:21:36;;;;;;;24.10;10.80;;;1.10;97.30;;;;;;4909188;29;20965;-73
2021/01/02 07:24:22;;;;;;;23.83;11.13;;;1.10;97.30;;;;;;4899910;29;20512;-73
2021/01/02 07:26:48;;;;;;;20.97;10.33;;;1.10;97.30;;;;;;4898588;29;20899;-73
2021/01/02 07:29:20;;;;;;;23.07;9.83;;;1.10;97.30;;;;;;4898121;29;20465;-72
2021/01/02 07:31:46;;;;;;;22.80;10.97;;;1.10;97.30;;;;;;4899350;29;20496;-72
2021/01/02 07:34:19;;;;;;;27.47;10.67;;;1.10;97.30;;;;;;4897185;29;20422;-72
2021/01/02 07:36:46;;;;;;;22.10;10.27;;;1.10;97.30;;;;;;4897325;29;20417;-73
2021/01/02 07:39:14;;;;;;;24.00;11.67;;;1.10;97.30;;;;;;4897782;29;20417;-73
2021/01/02 07:41:40;;;;;;;31.87;13.40;;;1.10;97.30;;;;;;4896032;29;20445;-72
2021/01/02 07:44:09;;;;;;;36.57;16.00;;;1.20;97.30;;;;;;4898088;29;20509;-73
2021/01/02 07:46:42;;;;;;;39.67;15.60;;;1.10;97.30;;;;;;4898370;29;20669;-73
2021/01/02 07:49:08;;;;;;;42.07;16.83;;;1.10;97.30;;;;;;4898289;29;20418;-73
2021/01/02 07:51:34;;;;;;;39.67;16.17;;;1.10;97.30;;;;;;4897976;29;20461;-73
2021/01/02 07:54:00;;;;;;;40.27;17.43;;;1.10;97.30;;;;;;4898370;29;20429;-74
2021/01/02 07:56:37;;;;;;;78.33;23.60;;;1.20;97.30;;;;;;4898575;29;20425;-73
2021/01/02 07:59:27;;;;;;;83.30;28.33;;;1.20;97.30;;;;;;4894778;29;20200;-72
2021/01/02 08:01:55;;;;;;;85.73;26.60;;;1.20;97.30;;;;;;4885677;29;20524;-73
2021/01/02 08:04:22;;;;;;;73.50;26.20;;;1.20;97.30;;;;;;4898809;29;20432;-72
2021/01/02 08:06:50;;;;;;;83.50;25.50;;;1.20;97.30;;;;;;4897783;29;20927;-72
2021/01/02 08:09:15;;;;;;;70.00;24.80;;;1.20;97.30;;;;;;4899409;29;20517;-72
2021/01/02 08:11:49;;;;;;;66.10;22.73;;;1.30;97.30;;;;;;4897991;29;20601;-72
2021/01/02 08:14:15;;;;;;;79.33;23.90;;;1.30;97.30;;;;;;4898105;29;20284;-72
2021/01/02 08:16:40;;;;;;;35.33;16.00;;;1.30;97.30;;;;;;4899322;29;20554;-73
2021/01/02 08:19:06;;;;;;;43.30;14.87;;;1.30;97.30;;;;;;4897714;29;20185;-72
2021/01/02 08:21:38;;;;;;;28.50;11.53;;;1.20;97.30;;;;;;4899133;29;20675;-72
2021/01/02 08:24:05;;;;;;;30.40;12.10;;;1.20;97.30;;;;;;4897959;29;20191;-72
2021/01/02 08:26:32;;;;;;;18.47;10.23;;;1.20;97.30;;;;;;4899096;29;20826;-72
2021/01/02 08:28:58;;;;;;;23.23;11.37;;;1.10;97.30;;;;;;4898814;29;20441;-72
2021/01/02 08:31:25;;;;;;;29.67;11.67;;;1.20;97.30;;;;;;4898987;29;20549;-72
2021/01/02 08:33:52;;;;;;;24.73;11.70;;;1.20;97.30;;;;;;4897638;29;20827;-72
2021/01/02 08:36:19;;;;;;;26.67;12.57;;;1.30;97.30;;;;;;4899184;29;20449;-72
2021/01/02 08:38:54;;;;;;;24.80;12.63;;;1.30;97.30;;;;;;4898915;29;20410;-72
2021/01/02 08:41:21;;;;;;;21.17;10.83;;;1.40;97.30;;;;;;4897756;29;20517;-73
2021/01/02 08:43:48;;;;;;;26.87;13.63;;;1.50;97.30;;;;;;4897435;29;20464;-73
2021/01/02 08:46:20;;;;;;;23.97;12.73;;;1.60;97.30;;;;;;4897419;29;20446;-72
2021/01/02 08:48:46;;;;;;;26.77;12.13;;;1.70;97.30;;;;;;4898518;29;20469;-72
2021/01/02 08:51:26;;;;;;;22.53;11.17;;;1.60;97.30;;;;;;4897381;29;20812;-72
2021/01/02 08:53:52;;;;;;;30.53;13.27;;;1.60;97.30;;;;;;4896641;29;20414;-72
2021/01/02 08:56:30;;;;;;;24.97;11.50;;;1.60;97.30;;;;;;4897408;29;20417;-72
2021/01/02 08:58:58;;;;;;;32.07;14.70;;;1.70;97.30;;;;;;4897190;29;20418;-72
2021/01/02 09:01:24;;;;;;;27.27;12.67;;;1.70;97.30;;;;;;4898401;29;20460;-72
2021/01/02 09:03:49;;;;;;;28.37;13.73;;;1.80;97.30;;;;;;4898402;29;20870;-72
2021/01/02 09:06:25;;;;;;;26.60;12.77;;;1.80;97.30;;;;;;4897190;29;20188;-72
2021/01/02 09:09:07;;;;;;;25.33;11.83;;;1.90;97.30;;;;;;4898213;29;20255;-72
2021/01/02 09:11:50;;;;;;;27.47;12.37;;;2.00;97.30;;;;;;4897416;29;20534;-72
2021/01/02 09:14:16;;;;;;;28.43;13.23;;;2.00;97.30;;;;;;4896828;29;20441;-72
2021/01/02 09:16:58;;;;;;;30.13;13.80;;;2.10;97.30;;;;;;4897009;29;20433;-72
2021/01/02 09:19:24;;;;;;;46.10;19.83;;;2.20;97.30;;;;;;4896874;29;20453;-72
2021/01/02 09:21:50;;;;;;;39.03;18.07;;;2.20;97.30;;;;;;4896890;29;20979;-72
2021/01/02 09:24:22;;;;;;;35.57;18.83;;;2.30;97.30;;;;;;4898194;29;20181;-72
2021/01/02 09:26:49;;;;;;;55.23;22.30;;;2.40;97.30;;;;;;4896944;29;20186;-73
2021/01/02 09:29:17;;;;;;;138.63;44.97;;;2.40;97.30;;;;;;4896561;29;20421;-72
2021/01/02 09:31:43;;;;;;;104.40;36.67;;;2.40;97.30;;;;;;4896960;29;20473;-72
2021/01/02 09:34:10;;;;;;;362.00;97.93;;;2.50;97.30;;;;;;4897865;29;20409;-72
2021/01/02 09:36:37;;;;;;;324.30;87.60;;;2.50;97.30;;;;;;4897892;29;20425;-72
2021/01/02 09:39:04;;;;;;;292.50;72.13;;;2.60;97.30;;;;;;4893862;29;20429;-72
2021/01/02 09:41:30;;;;;;;302.20;80.27;;;2.70;97.30;;;;;;4891647;29;20487;-72
2021/01/02 09:43:57;;;;;;;137.23;43.10;;;2.70;97.30;;;;;;4885735;29;20484;-72
2021/01/02 09:46:28;;;;;;;122.97;38.20;;;2.80;97.30;;;;;;4897475;29;20233;-72
2021/01/02 09:48:55;;;;;;;93.33;29.50;;;2.90;97.30;;;;;;4894819;29;20429;-73
2021/01/02 09:51:25;;;;;;;47.40;19.23;;;3.00;97.30;;;;;;4892701;29;20847;-73
2021/01/02 09:53:51;;;;;;;48.33;19.43;;;3.10;97.30;;;;;;4896101;29;20426;-73
2021/01/02 09:56:18;;;;;;;36.70;16.83;;;3.10;97.30;;;;;;4896026;29;20429;-73
2021/01/02 09:58:44;;;;;;;35.23;15.30;;;3.20;97.30;;;;;;4897786;29;20457;-74
2021/01/02 10:01:09;;;;;;;31.13;15.40;;;3.20;97.30;;;;;;4896018;29;20544;-73
2021/01/02 10:03:45;;;;;;;32.17;15.23;;;3.30;97.30;;;;;;4906496;29;20203;-72
2021/01/02 10:06:15;;;;;;;25.90;13.10;;;3.30;97.30;;;;;;4910270;29;20423;-74
2021/01/02 10:08:47;;;;;;;30.33;15.47;;;3.40;97.30;;;;;;4907940;29;20421;-72
2021/01/02 10:11:13;;;;;;;52.17;21.13;;;3.50;97.30;;;;;;4900252;29;20524;-72
2021/01/02 10:13:39;;;;;;;111.67;36.00;;;3.50;97.30;;;;;;4900208;29;20979;-72
2021/01/02 10:16:05;;;;;;;30.77;14.10;;;3.60;97.30;;;;;;4900459;29;20181;-72
2021/01/02 10:18:31;;;;;;;24.10;12.43;;;3.70;97.30;;;;;;4900046;29;20185;-73
2021/01/02 10:20:57;;;;;;;24.33;11.77;;;3.70;97.30;;;;;;4900106;29;20197;-72
2021/01/02 10:23:22;;;;;;;26.17;13.00;;;3.70;97.30;;;;;;4900803;29;20425;-72
2021/01/02 10:25:48;;;;;;;23.27;12.40;;;3.80;97.30;;;;;;4900543;29;20181;-71
2021/01/02 10:28:14;;;;;;;40.37;16.17;;;3.90;97.30;;;;;;4899580;29;20177;-73
2021/01/02 10:30:49;;;;;;;58.47;22.17;;;3.90;97.30;;;;;;4903640;29;20269;-73
2021/01/02 10:33:16;;;;;;;57.30;21.20;;;3.90;97.30;;;;;;4902321;29;20695;-73
2021/01/02 10:35:41;;;;;;;34.40;15.70;;;3.90;97.30;;;;;;4900819;29;20417;-72
2021/01/02 10:38:22;;;;;;;34.90;15.43;;;4.00;97.30;;;;;;4902223;29;20460;-72
2021/01/02 10:40:51;;;;;;;28.13;13.67;;;4.00;97.30;;;;;;4900756;29;20189;-72
2021/01/02 10:43:17;;;;;;;43.17;16.13;;;4.10;97.30;;;;;;4901943;29;20464;-73
2021/01/02 10:45:43;;;;;;;34.57;15.77;;;4.10;97.30;;;;;;4901130;29;20441;-72
2021/01/02 10:48:08;;;;;;;30.30;15.30;;;4.10;97.30;;;;;;4901450;29;20217;-72
2021/01/02 10:50:34;;;;;;;29.93;13.87;;;4.10;97.30;;;;;;4900367;29;20212;-72
2021/01/02 10:53:00;;;;;;;29.03;16.13;;;4.10;97.30;;;;;;4899806;29;20233;-72
2021/01/02 10:55:26;;;;;;;35.27;14.67;;;4.10;97.30;;;;;;4900535;29;20185;-72
2021/01/02 10:57:52;;;;;;;39.53;16.23;;;4.00;97.30;;;;;;4899685;29;20233;-72
2021/01/02 11:00:18;;;;;;;33.70;15.50;;;4.00;97.30;;;;;;4899530;29;20789;-72
2021/01/02 11:02:51;;;;;;;35.87;15.80;;;4.10;97.30;;;;;;4900678;29;20193;-72
2021/01/02 11:05:17;;;;;;;25.90;13.27;;;4.10;97.30;;;;;;4903277;29;20405;-72
2021/01/02 11:07:43;;;;;;;36.73;14.30;;;4.10;97.30;;;;;;4898693;29;20421;-72
2021/01/02 11:10:09;;;;;;;24.80;14.20;;;4.20;97.30;;;;;;4899204;29;20804;-72
2021/01/02 11:12:35;;;;;;;29.80;13.30;;;4.20;97.30;;;;;;4899332;29;20683;-73
2021/01/02 11:15:00;;;;;;;35.63;14.77;;;4.30;97.30;;;;;;4898825;29;20436;-72
2021/01/02 11:17:26;;;;;;;33.63;15.40;;;4.30;97.30;;;;;;4898673;29;20177;-72
2021/01/02 11:19:52;;;;;;;29.00;13.90;;;4.30;97.30;;;;;;4899019;29;20205;-72
2021/01/02 11:22:18;;;;;;;29.37;13.10;;;4.40;97.30;;;;;;4899028;29;20821;-73
2021/01/02 11:24:45;;;;;;;26.03;14.13;;;4.40;97.30;;;;;;4900207;29;20930;-73
2021/01/02 11:27:13;;;;;;;26.60;13.80;;;4.50;97.30;;;;;;4900055;29;20572;-73
2021/01/02 11:29:39;;;;;;;28.03;12.20;;;4.50;97.30;;;;;;4898195;29;20449;-73
2021/01/02 11:32:08;;;;;;;23.70;12.90;;;4.60;97.30;;;;;;4899006;29;20475;-73
2021/01/02 11:34:34;;;;;;;25.00;12.37;;;4.60;97.30;;;;;;4898409;29;20186;-74
2021/01/02 11:37:01;;;;;;;32.00;16.47;;;4.70;97.30;;;;;;4896730;29;20428;-73
2021/01/02 11:39:27;;;;;;;29.70;14.17;;;4.70;97.30;;;;;;4902985;29;20182;-73
2021/01/02 11:41:59;;;;;;;25.20;12.70;;;4.70;97.30;;;;;;4898572;29;20488;-73
2021/01/02 11:44:25;;;;;;;23.83;13.47;;;4.80;97.30;;;;;;4898704;29;20430;-73
2021/01/02 11:46:53;;;;;;;23.50;12.87;;;4.80;97.30;;;;;;4900086;29;20440;-76
2021/01/02 11:49:22;;;;;;;25.67;12.37;;;4.80;97.30;;;;;;4899723;29;20772;-73
2021/01/02 11:51:49;;;;;;;27.47;13.20;;;4.80;97.30;;;;;;4898100;29;20500;-73
2021/01/02 11:54:16;;;;;;;25.03;11.93;;;4.90;97.30;;;;;;4898311;29;20912;-73
2021/01/02 11:56:45;;;;;;;27.20;12.83;;;4.90;97.30;;;;;;4896086;29;20447;-73
2021/01/02 11:59:12;;;;;;;22.77;12.50;;;4.90;97.30;;;;;;4897514;29;20444;-72
2021/01/02 12:01:43;;;;;;;24.03;11.80;;;4.90;97.30;;;;;;4899028;29;20461;-73
2021/01/02 12:04:12;;;;;;;27.70;12.23;;;4.90;97.30;;;;;;4897175;29;20808;-73
2021/01/02 12:06:43;;;;;;;26.47;12.53;;;4.90;97.30;;;;;;4907851;29;20801;-72
2021/01/02 12:09:20;;;;;;;28.80;13.47;;;4.90;97.30;;;;;;4907060;29;20798;-73
2021/01/02 12:11:51;;;;;;;25.47;12.77;;;4.90;97.30;;;;;;4903570;29;20496;-73
2021/01/02 12:14:23;;;;;;;26.03;12.23;;;5.00;97.30;;;;;;4913086;29;20527;-73
2021/01/02 12:16:55;;;;;;;21.97;12.50;;;5.00;97.30;;;;;;4904260;29;20499;-73
2021/01/02 12:19:27;;;;;;;25.03;13.17;;;5.00;97.30;;;;;;4898322;29;20808;-72
2021/01/02 12:21:58;;;;;;;28.47;14.23;;;5.00;97.30;;;;;;4897378;29;21034;-71
2021/01/02 12:24:24;;;;;;;27.77;13.93;;;5.00;97.30;;;;;;4897423;29;20433;-72
2021/01/02 12:26:54;;;;;;;61.00;24.03;;;5.00;97.30;;;;;;4899402;29;20924;-73
2021/01/02 12:29:21;;;;;;;30.97;15.97;;;4.90;97.30;;;;;;4899186;29;20508;-71
2021/01/02 12:31:51;;;;;;;19.27;10.13;;;4.90;97.30;;;;;;4897831;29;20477;-72
2021/01/02 12:34:18;;;;;;;25.40;11.60;;;4.90;97.30;;;;;;4897776;29;20798;-73
2021/01/02 12:36:44;;;;;;;21.50;11.83;;;5.00;97.30;;;;;;4897485;29;20794;-72
2021/01/02 12:39:16;;;;;;;20.73;10.93;;;5.00;97.30;;;;;;4897712;29;20421;-73
2021/01/02 12:41:42;;;;;;;18.70;10.50;;;5.00;97.30;;;;;;4897454;29;20433;-73
2021/01/02 12:44:09;;;;;;;20.37;10.80;;;5.00;97.30;;;;;;4898908;29;20912;-72
2021/01/02 12:46:48;;;;;;;27.10;15.53;;;5.00;97.30;;;;;;4897525;29;20413;-72
2021/01/02 12:49:19;;;;;;;29.40;14.30;;;5.10;97.30;;;;;;4898733;29;20436;-72
2021/01/02 12:51:46;;;;;;;20.87;12.00;;;5.10;97.30;;;;;;4898571;29;20484;-72
2021/01/02 12:54:12;;;;;;;15.10;9.87;;;5.10;97.30;;;;;;4897319;29;20931;-72
2021/01/02 12:56:45;;;;;;;16.57;9.37;;;5.10;97.30;;;;;;4897466;29;20424;-72
2021/01/02 12:59:11;;;;;;;19.50;10.40;;;5.10;97.30;;;;;;4897186;29;20424;-72
2021/01/02 13:01:39;;;;;;;20.90;11.60;;;5.10;97.30;;;;;;4898243;29;20509;-72
2021/01/02 13:04:05;;;;;;;16.63;9.07;;;5.00;97.30;;;;;;4897492;29;20418;-73
2021/01/02 13:06:30;;;;;;;19.63;10.43;;;4.90;97.30;;;;;;4898493;29;20421;-73
2021/01/02 13:08:56;;;;;;;15.90;8.00;;;4.90;97.30;;;;;;4897274;29;20418;-72
2021/01/02 13:11:22;;;;;;;18.90;11.10;;;4.90;97.30;;;;;;4896643;29;20304;-73
2021/01/02 13:13:48;;;;;;;21.03;10.10;;;4.90;97.30;;;;;;4896998;29;20184;-73
2021/01/02 13:16:14;;;;;;;18.90;9.40;;;4.90;97.30;;;;;;4898170;29;20414;-72
2021/01/02 13:18:40;;;;;;;17.30;10.00;;;4.80;97.30;;;;;;4896918;29;20205;-73
2021/01/02 13:21:09;;;;;;;20.00;10.30;;;4.80;97.30;;;;;;4897595;29;20857;-73
2021/01/02 13:23:38;;;;;;;24.87;11.07;;;4.80;97.30;;;;;;4897054;29;20261;-73
2021/01/02 13:26:04;;;;;;;18.67;9.97;;;4.80;97.30;;;;;;4896865;29;20936;-73
2021/01/02 13:28:30;;;;;;;16.73;10.23;;;4.80;97.30;;;;;;4897951;29;20414;-73
2021/01/02 13:30:56;;;;;;;21.43;10.60;;;4.70;97.30;;;;;;4896769;29;20453;-73
2021/01/02 13:33:22;;;;;;;22.90;11.57;;;4.70;97.30;;;;;;4896935;29;20475;-73
2021/01/02 13:35:48;;;;;;;21.60;10.53;;;4.70;97.30;;;;;;4896665;29;20422;-73
2021/01/02 13:38:14;;;;;;;19.93;9.87;;;4.70;97.30;;;;;;4897539;29;20169;-73
2021/01/02 13:40:39;;;;;;;19.73;10.83;;;4.70;97.30;;;;;;4896531;29;20232;-73
2021/01/02 13:43:05;;;;;;;23.87;12.90;;;4.60;97.30;;;;;;4898049;29;20177;-72
2021/01/02 13:45:31;;;;;;;14.23;8.47;;;4.60;97.30;;;;;;4897994;29;20551;-73
2021/01/02 13:47:56;;;;;;;18.00;9.73;;;4.60;97.30;;;;;;4896766;29;20185;-73
2021/01/02 13:50:22;;;;;;;15.60;9.23;;;4.60;97.30;;;;;;4896503;29;20272;-73
2021/01/02 13:52:48;;;;;;;19.00;10.40;;;4.60;97.30;;;;;;4896525;29;20216;-73
2021/01/02 13:55:14;;;;;;;18.37;10.40;;;4.60;97.30;;;;;;4896790;29;20987;-73
2021/01/02 13:57:41;;;;;;;19.43;10.03;;;4.60;97.30;;;;;;4896463;29;20542;-73
2021/01/02 14:00:08;;;;;;;20.60;10.50;;;4.50;97.30;;;;;;4897890;29;20414;-73
2021/01/02 14:02:34;;;;;;;18.50;11.00;;;4.50;97.30;;;;;;4897714;29;20605;-73
2021/01/02 14:05:00;;;;;;;21.40;10.50;;;4.50;97.30;;;;;;4896389;29;20421;-73
2021/01/02 14:07:26;;;;;;;20.80;11.40;;;4.40;97.30;;;;;;4896454;29;20432;-73
2021/01/02 14:09:52;;;;;;;22.77;12.13;;;4.40;97.30;;;;;;4896587;29;20188;-73
2021/01/02 14:12:18;;;;;;;23.93;12.87;;;4.40;97.30;;;;;;4896345;29;20473;-73
2021/01/02 14:14:44;;;;;;;19.40;10.67;;;4.30;97.30;;;;;;4897678;29;20439;-73
2021/01/02 14:17:11;;;;;;;18.13;9.33;;;4.30;97.30;;;;;;4896302;29;20178;-73
2021/01/02 14:19:38;;;;;;;19.00;9.90;;;4.20;97.30;;;;;;4897464;29;20410;-73
2021/01/02 14:22:04;;;;;;;18.13;9.67;;;4.10;97.30;;;;;;4897415;29;20524;-73
2021/01/02 14:24:31;;;;;;;18.50;9.10;;;4.10;97.30;;;;;;4896517;29;20425;-73
2021/01/02 14:26:58;;;;;;;15.07;8.17;;;4.00;97.30;;;;;;4897320;29;20837;-73
2021/01/02 14:29:26;;;;;;;15.00;8.40;;;4.00;97.30;;;;;;4897544;29;20923;-73
2021/01/02 14:31:52;;;;;;;15.83;8.70;;;4.00;97.30;;;;;;4896161;29;20877;-73
2021/01/02 14:34:21;;;;;;;17.73;9.40;;;4.00;97.30;;;;;;4897498;29;20410;-72
2021/01/02 14:36:53;;;;;;;21.03;9.30;;;4.00;97.30;;;;;;4896583;29;20410;-73
2021/01/02 14:39:18;;;;;;;39.53;15.20;;;3.90;97.30;;;;;;4896519;29;20432;-73
2021/01/02 14:41:44;;;;;;;31.67;14.90;;;3.90;97.30;;;;;;4896129;29;20927;-73
2021/01/02 14:44:10;;;;;;;36.10;12.13;;;3.90;97.30;;;;;;4897625;29;20177;-72
2021/01/02 14:46:37;;;;;;;35.27;18.97;;;3.90;97.30;;;;;;4896098;29;20240;-72
2021/01/02 14:49:05;;;;;;;21.20;10.60;;;3.90;97.30;;;;;;4897478;29;20648;-73
2021/01/02 14:51:37;;;;;;;52.20;21.77;;;3.90;97.30;;;;;;4897752;29;20468;-72
2021/01/02 14:54:03;;;;;;;24.20;11.70;;;3.90;97.30;;;;;;4900672;29;20416;-73
2021/01/02 14:56:29;;;;;;;16.83;9.13;;;3.90;97.30;;;;;;4899672;29;20470;-73
2021/01/02 14:58:54;;;;;;;16.57;9.13;;;3.90;97.30;;;;;;4899407;29;20923;-72
2021/01/02 15:01:20;;;;;;;16.13;9.20;;;3.90;97.30;;;;;;4899090;29;20276;-72
2021/01/02 15:03:46;;;;;;;18.10;8.77;;;3.90;97.30;;;;;;4899470;29;20192;-75
2021/01/02 15:06:13;;;;;;;42.23;15.00;;;3.90;97.30;;;;;;4899480;29;20177;-73
2021/01/02 15:08:40;;;;;;;53.93;19.00;;;3.80;97.30;;;;;;4899300;29;20800;-74
2021/01/02 15:11:06;;;;;;;52.63;18.70;;;3.80;97.30;;;;;;4899176;29;20528;-74
2021/01/02 15:13:32;;;;;;;38.50;15.30;;;3.80;97.30;;;;;;4899055;29;20508;-73
2021/01/02 15:15:57;;;;;;;26.13;12.20;;;3.70;97.30;;;;;;4899111;29;20636;-72
2021/01/02 15:18:23;;;;;;;19.87;9.97;;;3.70;97.30;;;;;;4898857;29;20185;-73
2021/01/02 15:20:49;;;;;;;16.77;10.40;;;3.60;97.30;;;;;;4899142;29;20284;-73
2021/01/02 15:23:16;;;;;;;21.40;10.83;;;3.60;97.30;;;;;;4899085;29;20666;-73
2021/01/02 15:25:44;;;;;;;19.30;9.40;;;3.50;97.30;;;;;;4900416;29;20990;-73
2021/01/02 15:28:10;;;;;;;20.47;9.17;;;3.50;97.30;;;;;;4900269;29;20414;-73
2021/01/02 15:30:36;;;;;;;17.17;8.67;;;3.50;97.30;;;;;;4899834;29;20460;-73
2021/01/02 15:33:02;;;;;;;15.20;8.93;;;3.40;97.30;;;;;;4900057;29;20461;-72
2021/01/02 15:35:28;;;;;;;15.00;8.10;;;3.40;97.30;;;;;;4898911;29;20174;-73
2021/01/02 15:37:53;;;;;;;15.43;8.60;;;3.40;97.30;;;;;;4898722;29;20413;-73
2021/01/02 15:40:19;;;;;;;17.57;10.97;;;3.30;97.30;;;;;;4898789;29;20561;-73
2021/01/02 15:42:45;;;;;;;16.20;10.30;;;3.30;97.30;;;;;;4898750;29;20189;-72
2021/01/02 15:45:11;;;;;;;16.87;9.00;;;3.30;97.30;;;;;;4898723;29;20189;-73
2021/01/02 15:47:37;;;;;;;18.57;10.77;;;3.30;97.30;;;;;;4899771;29;20217;-73
2021/01/02 15:50:05;;;;;;;22.57;9.87;;;3.30;97.30;;;;;;4898673;29;20528;-73
2021/01/02 15:52:31;;;;;;;17.50;9.60;;;3.20;97.30;;;;;;4898408;29;20326;-73
2021/01/02 15:54:56;;;;;;;20.30;10.07;;;3.20;97.30;;;;;;4899716;29;20417;-72
2021/01/02 15:57:25;;;;;;;20.60;9.83;;;3.20;97.30;;;;;;4898187;29;20418;-73
2021/01/02 15:59:51;;;;;;;20.10;9.30;;;3.20;97.30;;;;;;4898414;29;20549;-72
2021/01/02 16:02:17;;;;;;;18.30;10.57;;;3.20;97.30;;;;;;4899101;29;20465;-72
2021/01/02 16:04:43;;;;;;;18.13;11.57;;;3.20;97.30;;;;;;4899578;29;20185;-73
2021/01/02 16:07:11;;;;;;;14.10;9.30;;;3.20;97.30;;;;;;4899426;29;20501;-72
2021/01/02 16:09:38;;;;;;;21.93;12.60;;;3.20;97.30;;;;;;4898266;29;20244;-73
2021/01/02 16:12:08;;;;;;;25.23;11.83;;;3.20;97.30;;;;;;4895238;29;20501;-72
2021/01/02 16:14:34;;;;;;;23.83;11.30;;;3.10;97.30;;;;;;4897282;29;20432;-73
2021/01/02 16:17:00;;;;;;;25.80;13.27;;;3.10;97.30;;;;;;4898183;29;20422;-72
2021/01/02 16:19:28;;;;;;;32.77;17.43;;;3.10;97.30;;;;;;4897953;29;20240;-72
2021/01/02 16:22:04;;;;;;;36.10;17.23;;;3.00;97.30;;;;;;4899059;29;20449;-73
2021/01/02 16:24:32;;;;;;;26.97;14.77;;;2.90;97.30;;;;;;4898048;29;20907;-73
2021/01/02 16:26:58;;;;;;;31.23;14.77;;;2.90;97.30;;;;;;4898849;29;20469;-72
2021/01/02 16:29:32;;;;;;;25.83;13.43;;;2.80;97.30;;;;;;4899420;29;20512;-73
2021/01/02 16:32:01;;;;;;;24.07;11.90;;;2.80;97.30;;;;;;4898692;29;20504;-73
2021/01/02 16:34:36;;;;;;;21.80;11.87;;;2.70;97.30;;;;;;4899449;29;20461;-72
2021/01/02 16:37:05;;;;;;;22.03;11.57;;;2.60;97.30;;;;;;4897881;29;20425;-73
2021/01/02 16:39:32;;;;;;;26.13;13.00;;;2.60;97.30;;;;;;4898012;29;20935;-72
2021/01/02 16:42:01;;;;;;;23.80;12.50;;;2.40;97.30;;;;;;4899101;29;20560;-73
2021/01/02 16:44:27;;;;;;;24.07;12.00;;;2.40;97.30;;;;;;4897686;29;20512;-72
2021/01/02 16:47:08;;;;;;;22.80;12.00;;;2.30;97.30;;;;;;4897579;29;20428;-73
2021/01/02 16:49:34;;;;;;;26.17;12.33;;;2.30;97.30;;;;;;4899364;29;20432;-72
2021/01/02 16:52:04;;;;;;;23.40;13.17;;;2.20;97.30;;;;;;4900021;29;20501;-72
2021/01/02 16:54:31;;;;;;;26.83;13.80;;;2.20;97.30;;;;;;4899316;29;20440;-73
2021/01/02 16:56:56;;;;;;;28.10;13.00;;;2.20;97.30;;;;;;4897976;29;20439;-73
2021/01/02 16:59:22;;;;;;;25.60;12.47;;;2.10;97.30;;;;;;4898769;29;20410;-73
2021/01/02 17:01:48;;;;;;;21.50;12.20;;;2.10;97.30;;;;;;4897148;29;20236;-72
2021/01/02 17:04:14;;;;;;;22.73;12.73;;;2.10;97.30;;;;;;4897250;29;20432;-73
2021/01/02 17:06:42;;;;;;;24.87;12.93;;;2.10;97.30;;;;;;4899788;29;20440;-73
2021/01/02 17:09:11;;;;;;;26.27;14.00;;;2.00;97.30;;;;;;4898919;29;20429;-72
2021/01/02 17:11:39;;;;;;;22.60;13.27;;;2.00;97.30;;;;;;4897872;29;20559;-73
2021/01/02 17:14:06;;;;;;;24.97;13.63;;;1.90;97.30;;;;;;4896995;29;20517;-73
2021/01/02 17:16:37;;;;;;;23.30;13.63;;;1.80;97.30;;;;;;4898534;29;20437;-72
2021/01/02 17:19:04;;;;;;;25.80;13.23;;;1.70;97.30;;;;;;4897610;29;20422;-73
2021/01/02 17:21:32;;;;;;;29.30;14.20;;;1.60;97.30;;;;;;4897630;29;20433;-73
2021/01/02 17:23:59;;;;;;;29.77;13.90;;;1.60;97.30;;;;;;4896761;29;20443;-72
2021/01/02 17:26:30;;;;;;;26.13;13.70;;;1.50;97.30;;;;;;4896743;29;20421;-72
2021/01/02 17:28:57;;;;;;;25.67;12.87;;;1.50;97.30;;;;;;4897332;29;20528;-73
2021/01/02 17:31:34;;;;;;;33.00;14.40;;;1.50;97.30;;;;;;4896630;29;20446;-72
2021/01/02 17:34:08;;;;;;;29.47;14.47;;;1.50;97.30;;;;;;4896541;29;20418;-72
2021/01/02 17:36:37;;;;;;;27.40;12.93;;;1.50;97.30;;;;;;4897146;29;20559;-72
2021/01/02 17:39:05;;;;;;;26.80;14.27;;;1.50;97.30;;;;;;4897884;29;20464;-72
2021/01/02 17:41:33;;;;;;;28.27;14.40;;;1.50;97.30;;;;;;4897976;29;20448;-73
2021/01/02 17:43:59;;;;;;;28.00;14.57;;;1.50;97.30;;;;;;4896568;29;20916;-73
2021/01/02 17:46:27;;;;;;;27.50;14.00;;;1.50;97.30;;;;;;4897214;29;20428;-72
2021/01/02 17:48:54;;;;;;;28.50;14.27;;;1.50;97.30;;;;;;4896277;29;20298;-72
2021/01/02 17:51:26;;;;;;;33.67;14.07;;;1.50;97.30;;;;;;4896758;29;20450;-73
2021/01/02 17:53:55;;;;;;;31.50;13.73;;;1.50;97.30;;;;;;4895726;29;20429;-72
2021/01/02 17:56:25;;;;;;;27.40;13.20;;;1.50;97.30;;;;;;4897005;29;20408;-72
2021/01/02 17:58:51;;;;;;;29.70;14.90;;;1.50;97.30;;;;;;4896087;29;20417;-73
2021/01/02 18:01:17;;;;;;;34.60;17.20;;;1.50;97.30;;;;;;4897625;29;20464;-72
2021/01/02 18:03:43;;;;;;;35.67;15.70;;;1.50;97.30;;;;;;4896464;29;20409;-72
2021/01/02 18:06:30;;;;;;;31.93;16.53;;;1.50;97.30;;;;;;4896451;29;20795;-72
2021/01/02 18:08:57;;;;;;;35.60;15.80;;;1.60;97.30;;;;;;4896265;29;20205;-72
2021/01/02 18:11:35;;;;;;;32.93;16.43;;;1.60;97.30;;;;;;4896063;29;20453;-72
2021/01/02 18:14:04;;;;;;;35.00;18.13;;;1.60;97.30;;;;;;4901281;29;20444;-72
2021/01/02 18:16:30;;;;;;;32.80;15.93;;;1.60;97.30;;;;;;4903125;29;20971;-73
2021/01/02 18:18:56;;;;;;;28.07;14.80;;;1.70;97.30;;;;;;4904041;29;20562;-72
2021/01/02 18:21:23;;;;;;;31.13;16.37;;;1.70;97.30;;;;;;4904214;29;20422;-72
2021/01/02 18:23:49;;;;;;;34.50;15.57;;;1.70;97.30;;;;;;4906471;29;20413;-72
2021/01/02 18:26:20;;;;;;;30.80;15.47;;;1.70;97.30;;;;;;4907559;29;20421;-73
2021/01/02 18:28:46;;;;;;;36.77;16.50;;;1.70;97.30;;;;;;4910618;29;20935;-72
2021/01/02 18:31:15;;;;;;;37.17;16.70;;;1.70;97.30;;;;;;4909773;29;20440;-72
2021/01/02 18:33:41;;;;;;;29.53;15.30;;;1.80;97.30;;;;;;4908383;29;20421;-73
2021/01/02 18:36:09;;;;;;;34.30;16.77;;;1.80;97.30;;;;;;4909555;29;21009;-72
2021/01/02 18:38:38;;;;;;;43.10;17.20;;;1.80;97.30;;;;;;4909695;29;20420;-71
2021/01/02 18:41:03;;;;;;;36.93;17.10;;;1.80;97.30;;;;;;4911830;29;20452;-72
2021/01/02 18:43:29;;;;;;;32.70;14.73;;;1.80;97.30;;;;;;4909419;29;20916;-73
2021/01/02 18:45:55;;;;;;;30.97;16.20;;;1.80;97.30;;;;;;4914461;29;20181;-73